Terminal Aerodrome Forecast
Issued by NWS Corpus Christi, TX

Home | Current Version | Previous Version | Text Only | Print | Product List | Glossary On
Versions: 1 2 3 4 5 6 7 8 9 10 11 12 13 14 15 16 17 18 19 20 21 22 23 24 25 26 27
000
FTUS44 KCRP 041100
TAFCRP
TAF
KCRP 041137Z 0412/0512 16011KT 4SM BR OVC003
      TEMPO 0412/0415 1SM -DZ BR SCT003 OVC010
     FM041500 17012KT 5SM BR OVC008
     FM041700 17015KT P6SM BKN012 OVC025
     FM042200 15017KT P6SM VCSH SCT025 BKN150
     FM050100 13012KT 4SM -SHRA BR BKN008
     FM050700 36025G35KT P6SM -SHRA BKN006 OVC011=

USA.gov is the U.S. government's official web portal to all federal, state and local government web resources and services.